sensor_id;sensor_type;location;lat;lon;timestamp;pressure;altitude;pressure_sealevel;temperature;humidity
62978;BME280;49073;42.352;23.808;2023-04-26T00:02:31;93746.38;;;9.02;92.33
62978;BME280;49073;42.352;23.808;2023-04-26T00:05:33;93739.25;;;9.13;92.22
62978;BME280;49073;42.352;23.808;2023-04-26T00:08:37;93726.53;;;8.92;91.51
62978;BME280;49073;42.352;23.808;2023-04-26T00:11:38;93718.91;;;8.87;92.26
62978;BME280;49073;42.352;23.808;2023-04-26T00:14:38;93710.50;;;8.81;92.03
62978;BME280;49073;42.352;23.808;2023-04-26T00:17:39;93710.50;;;8.81;91.39
62978;BME280;49073;42.352;23.808;2023-04-26T00:20:40;93699.41;;;8.72;90.12
62978;BME280;49073;42.352;23.808;2023-04-26T00:23:41;93706.91;;;8.63;91.22
62978;BME280;49073;42.352;23.808;2023-04-26T00:26:41;93701.78;;;8.47;91.77
62978;BME280;49073;42.352;23.808;2023-04-26T00:29:42;93705.16;;;8.43;92.19
62978;BME280;49073;42.352;23.808;2023-04-26T00:32:42;93696.00;;;8.37;91.68
62978;BME280;49073;42.352;23.808;2023-04-26T00:35:43;93706.66;;;8.41;91.42
62978;BME280;49073;42.352;23.808;2023-04-26T00:38:46;93703.56;;;8.35;90.95
62978;BME280;49073;42.352;23.808;2023-04-26T00:41:47;93705.81;;;8.33;89.85
62978;BME280;49073;42.352;23.808;2023-04-26T00:44:48;93707.56;;;8.52;91.07
62978;BME280;49073;42.352;23.808;2023-04-26T00:47:50;93707.88;;;8.47;91.02
62978;BME280;49073;42.352;23.808;2023-04-26T00:50:51;93696.88;;;8.49;90.65
62978;BME280;49073;42.352;23.808;2023-04-26T00:53:52;93692.69;;;8.48;90.41
62978;BME280;49073;42.352;23.808;2023-04-26T00:56:53;93691.25;;;8.54;90.76
62978;BME280;49073;42.352;23.808;2023-04-26T00:59:53;93693.00;;;8.39;90.54
62978;BME280;49073;42.352;23.808;2023-04-26T01:02:54;93694.53;;;8.43;90.48
62978;BME280;49073;42.352;23.808;2023-04-26T01:05:55;93687.63;;;8.32;91.99
62978;BME280;49073;42.352;23.808;2023-04-26T01:08:56;93684.91;;;8.28;93.11
62978;BME280;49073;42.352;23.808;2023-04-26T01:11:59;93690.22;;;8.28;92.06
62978;BME280;49073;42.352;23.808;2023-04-26T01:15:00;93699.50;;;8.11;90.25
62978;BME280;49073;42.352;23.808;2023-04-26T01:18:02;93698.50;;;7.92;89.14
62978;BME280;49073;42.352;23.808;2023-04-26T01:21:04;93701.84;;;7.85;90.12
62978;BME280;49073;42.352;23.808;2023-04-26T01:24:05;93708.25;;;7.84;90.72
62978;BME280;49073;42.352;23.808;2023-04-26T01:27:06;93714.19;;;7.74;89.54
62978;BME280;49073;42.352;23.808;2023-04-26T01:30:07;93710.31;;;7.68;92.35
62978;BME280;49073;42.352;23.808;2023-04-26T01:33:08;93712.56;;;7.66;92.53
62978;BME280;49073;42.352;23.808;2023-04-26T01:36:09;93706.88;;;7.64;92.28
62978;BME280;49073;42.352;23.808;2023-04-26T01:39:10;93700.28;;;7.54;92.50
62978;BME280;49073;42.352;23.808;2023-04-26T01:42:11;93710.53;;;7.55;93.39
62978;BME280;49073;42.352;23.808;2023-04-26T01:45:11;93715.84;;;7.55;90.88
62978;BME280;49073;42.352;23.808;2023-04-26T01:48:12;93717.06;;;7.62;89.01
62978;BME280;49073;42.352;23.808;2023-04-26T01:51:13;93716.16;;;7.50;87.79
62978;BME280;49073;42.352;23.808;2023-04-26T01:54:14;93699.88;;;7.25;88.70
62978;BME280;49073;42.352;23.808;2023-04-26T01:57:15;93676.16;;;7.09;90.38
62978;BME280;49073;42.352;23.808;2023-04-26T02:00:16;93684.03;;;7.05;91.16
62978;BME280;49073;42.352;23.808;2023-04-26T02:03:16;93682.53;;;6.81;92.02
62978;BME280;49073;42.352;23.808;2023-04-26T02:06:17;93687.75;;;6.77;93.11
62978;BME280;49073;42.352;23.808;2023-04-26T02:09:17;93689.19;;;6.94;92.81
62978;BME280;49073;42.352;23.808;2023-04-26T02:12:18;93689.06;;;6.87;93.44
62978;BME280;49073;42.352;23.808;2023-04-26T02:15:18;93689.94;;;6.72;91.48
62978;BME280;49073;42.352;23.808;2023-04-26T02:18:19;93703.34;;;6.82;93.02
62978;BME280;49073;42.352;23.808;2023-04-26T02:21:22;93710.25;;;6.87;93.63
62978;BME280;49073;42.352;23.808;2023-04-26T02:24:23;93714.88;;;6.70;94.60
62978;BME280;49073;42.352;23.808;2023-04-26T02:27:24;93742.00;;;6.64;95.48
62978;BME280;49073;42.352;23.808;2023-04-26T02:30:25;93735.97;;;6.87;94.80
62978;BME280;49073;42.352;23.808;2023-04-26T02:33:26;93731.91;;;6.93;95.07
62978;BME280;49073;42.352;23.808;2023-04-26T02:36:26;93729.56;;;7.11;94.48
62978;BME280;49073;42.352;23.808;2023-04-26T02:39:28;93718.03;;;6.99;94.31
62978;BME280;49073;42.352;23.808;2023-04-26T02:42:28;93704.06;;;7.03;95.84
62978;BME280;49073;42.352;23.808;2023-04-26T02:45:29;93695.72;;;7.01;96.10
62978;BME280;49073;42.352;23.808;2023-04-26T02:48:29;93685.63;;;7.10;96.30
62978;BME280;49073;42.352;23.808;2023-04-26T02:51:30;93682.28;;;7.13;95.00
62978;BME280;49073;42.352;23.808;2023-04-26T02:54:32;93684.16;;;7.12;96.19
62978;BME280;49073;42.352;23.808;2023-04-26T02:57:33;93677.97;;;7.28;95.53
62978;BME280;49073;42.352;23.808;2023-04-26T03:00:33;93677.59;;;7.30;93.67
62978;BME280;49073;42.352;23.808;2023-04-26T03:03:34;93688.31;;;7.37;93.89
62978;BME280;49073;42.352;23.808;2023-04-26T03:06:36;93703.69;;;7.27;92.63
62978;BME280;49073;42.352;23.808;2023-04-26T03:09:38;93702.97;;;7.31;92.38
62978;BME280;49073;42.352;23.808;2023-04-26T03:12:38;93705.06;;;7.18;90.39
62978;BME280;49073;42.352;23.808;2023-04-26T03:15:43;93704.25;;;7.13;90.98
62978;BME280;49073;42.352;23.808;2023-04-26T03:18:43;93695.53;;;7.13;89.81
62978;BME280;49073;42.352;23.808;2023-04-26T03:21:44;93697.25;;;6.78;90.20
62978;BME280;49073;42.352;23.808;2023-04-26T03:24:44;93692.06;;;6.86;91.82
62978;BME280;49073;42.352;23.808;2023-04-26T03:27:46;93693.84;;;6.78;93.73
62978;BME280;49073;42.352;23.808;2023-04-26T03:30:46;93691.16;;;7.01;93.29
62978;BME280;49073;42.352;23.808;2023-04-26T03:33:49;93697.28;;;7.05;92.85
62978;BME280;49073;42.352;23.808;2023-04-26T03:36:49;93695.06;;;7.07;93.46
62978;BME280;49073;42.352;23.808;2023-04-26T03:39:50;93685.28;;;7.11;94.16
62978;BME280;49073;42.352;23.808;2023-04-26T03:42:52;93682.09;;;7.02;93.90
62978;BME280;49073;42.352;23.808;2023-04-26T03:45:53;93682.66;;;7.11;93.83
62978;BME280;49073;42.352;23.808;2023-04-26T03:48:54;93691.41;;;7.16;93.78
62978;BME280;49073;42.352;23.808;2023-04-26T03:51:55;93690.97;;;7.37;92.60
62978;BME280;49073;42.352;23.808;2023-04-26T03:54:56;93706.88;;;7.37;92.42
62978;BME280;49073;42.352;23.808;2023-04-26T03:57:56;93694.06;;;7.42;92.53
62978;BME280;49073;42.352;23.808;2023-04-26T04:00:57;93712.69;;;7.46;92.77
62978;BME280;49073;42.352;23.808;2023-04-26T04:03:58;93704.84;;;7.53;93.66
62978;BME280;49073;42.352;23.808;2023-04-26T04:06:59;93712.69;;;7.46;94.43
62978;BME280;49073;42.352;23.808;2023-04-26T04:10:00;93709.75;;;7.55;94.88
62978;BME280;49073;42.352;23.808;2023-04-26T04:13:00;93714.66;;;7.53;94.58
62978;BME280;49073;42.352;23.808;2023-04-26T04:16:01;93721.03;;;7.48;95.06
62978;BME280;49073;42.352;23.808;2023-04-26T04:19:04;93725.47;;;7.40;96.44
62978;BME280;49073;42.352;23.808;2023-04-26T04:22:04;93727.41;;;7.20;97.58
62978;BME280;49073;42.352;23.808;2023-04-26T04:25:07;93727.28;;;7.09;98.27
62978;BME280;49073;42.352;23.808;2023-04-26T04:28:09;93722.25;;;7.04;99.46
62978;BME280;49073;42.352;23.808;2023-04-26T04:31:11;93737.16;;;7.12;99.57
62978;BME280;49073;42.352;23.808;2023-04-26T04:34:12;93731.69;;;7.02;98.25
62978;BME280;49073;42.352;23.808;2023-04-26T04:37:15;93737.91;;;7.36;96.81
62978;BME280;49073;42.352;23.808;2023-04-26T04:40:16;93738.06;;;7.47;96.81
62978;BME280;49073;42.352;23.808;2023-04-26T04:43:17;93732.50;;;7.56;96.16
62978;BME280;49073;42.352;23.808;2023-04-26T04:46:17;93738.84;;;7.75;95.41
62978;BME280;49073;42.352;23.808;2023-04-26T04:49:18;93746.47;;;7.80;96.03
62978;BME280;49073;42.352;23.808;2023-04-26T04:52:19;93741.38;;;7.94;95.93
62978;BME280;49073;42.352;23.808;2023-04-26T04:55:21;93748.66;;;8.01;95.97
62978;BME280;49073;42.352;23.808;2023-04-26T04:58:21;93747.41;;;8.22;94.86
62978;BME280;49073;42.352;23.808;2023-04-26T05:01:22;93746.72;;;8.28;95.23
62978;BME280;49073;42.352;23.808;2023-04-26T05:04:23;93745.38;;;8.42;93.48
62978;BME280;49073;42.352;23.808;2023-04-26T05:07:23;93744.66;;;8.49;92.95
62978;BME280;49073;42.352;23.808;2023-04-26T05:10:24;93742.38;;;8.47;92.75
62978;BME280;49073;42.352;23.808;2023-04-26T05:13:24;93733.53;;;8.66;92.27
62978;BME280;49073;42.352;23.808;2023-04-26T05:16:25;93732.84;;;8.77;91.80
62978;BME280;49073;42.352;23.808;2023-04-26T05:19:26;93729.81;;;8.78;91.17
62978;BME280;49073;42.352;23.808;2023-04-26T05:22:27;93736.03;;;8.93;90.50
62978;BME280;49073;42.352;23.808;2023-04-26T05:25:27;93729.66;;;8.98;90.93
62978;BME280;49073;42.352;23.808;2023-04-26T05:28:28;93731.97;;;9.03;90.62
62978;BME280;49073;42.352;23.808;2023-04-26T05:31:28;93730.78;;;8.97;91.55
62978;BME280;49073;42.352;23.808;2023-04-26T05:34:29;93726.53;;;8.92;89.58
62978;BME280;49073;42.352;23.808;2023-04-26T05:37:30;93745.94;;;8.96;88.47
62978;BME280;49073;42.352;23.808;2023-04-26T05:40:31;93742.59;;;9.03;90.92
62978;BME280;49073;42.352;23.808;2023-04-26T05:43:31;93742.38;;;9.19;91.86
62978;BME280;49073;42.352;23.808;2023-04-26T05:46:32;93740.72;;;9.07;94.02
62978;BME280;49073;42.352;23.808;2023-04-26T05:49:32;93745.47;;;9.28;94.90
62978;BME280;49073;42.352;23.808;2023-04-26T05:52:33;93747.94;;;9.52;92.30
62978;BME280;49073;42.352;23.808;2023-04-26T05:55:34;93743.06;;;9.61;91.44
62978;BME280;49073;42.352;23.808;2023-04-26T05:58:34;93745.72;;;9.61;91.98
62978;BME280;49073;42.352;23.808;2023-04-26T06:01:35;93741.53;;;9.64;91.39
62978;BME280;49073;42.352;23.808;2023-04-26T06:04:35;93739.75;;;9.75;90.00
62978;BME280;49073;42.352;23.808;2023-04-26T06:07:36;93736.75;;;9.87;87.84
62978;BME280;49073;42.352;23.808;2023-04-26T06:10:37;93736.84;;;10.02;86.41
62978;BME280;49073;42.352;23.808;2023-04-26T06:13:37;93739.16;;;10.14;86.27
62978;BME280;49073;42.352;23.808;2023-04-26T06:16:38;93746.44;;;10.21;85.58
62978;BME280;49073;42.352;23.808;2023-04-26T06:19:38;93736.63;;;10.36;86.27
62978;BME280;49073;42.352;23.808;2023-04-26T06:22:39;93737.09;;;10.56;84.84
62978;BME280;49073;42.352;23.808;2023-04-26T06:25:40;93737.50;;;10.66;83.28
62978;BME280;49073;42.352;23.808;2023-04-26T06:28:43;93738.59;;;10.57;82.06
62978;BME280;49073;42.352;23.808;2023-04-26T06:31:45;93746.13;;;10.33;79.21
62978;BME280;49073;42.352;23.808;2023-04-26T06:34:45;93738.47;;;10.25;81.70
62978;BME280;49073;42.352;23.808;2023-04-26T06:37:46;93730.88;;;10.30;82.78
62978;BME280;49073;42.352;23.808;2023-04-26T06:40:46;93737.81;;;10.46;80.63
62978;BME280;49073;42.352;23.808;2023-04-26T06:43:47;93737.13;;;10.64;80.32
62978;BME280;49073;42.352;23.808;2023-04-26T06:46:48;93736.31;;;10.59;79.89
62978;BME280;49073;42.352;23.808;2023-04-26T06:49:51;93744.78;;;10.87;80.31
62978;BME280;49073;42.352;23.808;2023-04-26T06:52:52;93740.25;;;11.09;77.52
62978;BME280;49073;42.352;23.808;2023-04-26T06:55:52;93740.25;;;11.20;76.01
62978;BME280;49073;42.352;23.808;2023-04-26T06:59:04;93742.16;;;11.23;72.82
62978;BME280;49073;42.352;23.808;2023-04-26T07:02:05;93735.72;;;11.20;71.35
62978;BME280;49073;42.352;23.808;2023-04-26T07:05:06;93739.88;;;11.25;71.81
62978;BME280;49073;42.352;23.808;2023-04-26T07:08:07;93743.31;;;11.15;69.80
62978;BME280;49073;42.352;23.808;2023-04-26T07:11:11;93746.34;;;11.06;69.21
62978;BME280;49073;42.352;23.808;2023-04-26T07:14:12;93747.88;;;11.14;70.29
62978;BME280;49073;42.352;23.808;2023-04-26T07:17:13;93746.34;;;11.10;71.02
62978;BME280;49073;42.352;23.808;2023-04-26T07:20:13;93749.03;;;11.17;70.89
62978;BME280;49073;42.352;23.808;2023-04-26T07:23:19;93742.94;;;11.31;73.36
62978;BME280;49073;42.352;23.808;2023-04-26T07:26:19;93746.38;;;11.35;70.72
62978;BME280;49073;42.352;23.808;2023-04-26T07:29:20;93742.94;;;11.31;70.40
62978;BME280;49073;42.352;23.808;2023-04-26T07:32:21;93739.50;;;11.34;70.19
62978;BME280;49073;42.352;23.808;2023-04-26T07:35:21;93748.66;;;11.33;71.24
62978;BME280;49073;42.352;23.808;2023-04-26T07:38:22;93744.09;;;11.44;71.25
62978;BME280;49073;42.352;23.808;2023-04-26T07:41:23;93755.16;;;11.50;71.02
62978;BME280;49073;42.352;23.808;2023-04-26T07:44:23;93745.22;;;11.50;69.65
62978;BME280;49073;42.352;23.808;2023-04-26T07:47:24;93754.75;;;11.62;71.32
62978;BME280;49073;42.352;23.808;2023-04-26T07:50:24;93747.88;;;11.72;70.37
62978;BME280;49073;42.352;23.808;2023-04-26T07:53:25;93747.13;;;11.61;71.24
62978;BME280;49073;42.352;23.808;2023-04-26T07:56:26;93752.47;;;11.64;70.52
62978;BME280;49073;42.352;23.808;2023-04-26T07:59:26;93745.59;;;11.45;69.76
62978;BME280;49073;42.352;23.808;2023-04-26T08:02:27;93752.84;;;11.63;70.89
62978;BME280;49073;42.352;23.808;2023-04-26T08:05:27;93750.94;;;11.67;70.76
62978;BME280;49073;42.352;23.808;2023-04-26T08:08:28;93755.09;;;11.75;70.81
62978;BME280;49073;42.352;23.808;2023-04-26T08:11:28;93750.53;;;11.87;71.74
62978;BME280;49073;42.352;23.808;2023-04-26T08:14:29;93752.06;;;11.81;68.21
62978;BME280;49073;42.352;23.808;2023-04-26T08:17:30;93751.31;;;11.66;67.31
62978;BME280;49073;42.352;23.808;2023-04-26T08:20:31;93752.44;;;11.79;68.44
62978;BME280;49073;42.352;23.808;2023-04-26T08:23:33;93749.03;;;11.75;67.28
62978;BME280;49073;42.352;23.808;2023-04-26T08:26:37;93745.22;;;11.79;67.28
62978;BME280;49073;42.352;23.808;2023-04-26T08:29:37;93748.63;;;11.69;67.87
62978;BME280;49073;42.352;23.808;2023-04-26T08:32:38;93745.22;;;11.61;67.67
62978;BME280;49073;42.352;23.808;2023-04-26T08:35:38;93746.38;;;11.57;67.16
62978;BME280;49073;42.352;23.808;2023-04-26T08:38:39;93746.38;;;11.78;66.87
62978;BME280;49073;42.352;23.808;2023-04-26T08:41:48;93744.81;;;11.81;66.64
62978;BME280;49073;42.352;23.808;2023-04-26T08:44:50;93753.97;;;11.80;65.07
62978;BME280;49073;42.352;23.808;2023-04-26T08:48:10;93749.78;;;11.75;60.03
62978;BME280;49073;42.352;23.808;2023-04-26T08:51:16;93741.03;;;11.68;54.40
62978;BME280;49073;42.352;23.808;2023-04-26T08:54:18;93743.31;;;11.66;57.37
62978;BME280;49073;42.352;23.808;2023-04-26T08:57:20;93750.16;;;11.70;56.81
62978;BME280;49073;42.352;23.808;2023-04-26T09:00:21;93752.47;;;11.54;53.44
62978;BME280;49073;42.352;23.808;2023-04-26T09:03:22;93754.75;;;11.66;55.11
62978;BME280;49073;42.352;23.808;2023-04-26T09:06:25;93752.47;;;11.64;54.11
62978;BME280;49073;42.352;23.808;2023-04-26T09:09:37;93749.78;;;11.61;51.42
62978;BME280;49073;42.352;23.808;2023-04-26T09:12:40;93754.72;;;11.73;53.58
62978;BME280;49073;42.352;23.808;2023-04-26T09:15:42;93766.16;;;11.77;52.25
62978;BME280;49073;42.352;23.808;2023-04-26T09:18:51;93763.50;;;11.88;54.45
62978;BME280;49073;42.352;23.808;2023-04-26T09:21:53;93762.72;;;11.95;59.13
62978;BME280;49073;42.352;23.808;2023-04-26T09:24:55;93775.69;;;11.93;61.85
62978;BME280;49073;42.352;23.808;2023-04-26T09:27:56;93777.25;;;11.76;60.23
62978;BME280;49073;42.352;23.808;2023-04-26T09:30:57;93780.66;;;11.69;60.54
62978;BME280;49073;42.352;23.808;2023-04-26T09:33:58;93786.38;;;11.64;59.52
62978;BME280;49073;42.352;23.808;2023-04-26T09:36:59;93784.84;;;11.63;58.40
62978;BME280;49073;42.352;23.808;2023-04-26T09:39:59;93786.41;;;11.78;57.33
62978;BME280;49073;42.352;23.808;2023-04-26T09:43:10;93781.06;;;11.86;58.18
62978;BME280;49073;42.352;23.808;2023-04-26T09:46:21;93773.81;;;11.68;58.66
62978;BME280;49073;42.352;23.808;2023-04-26T09:49:25;93782.56;;;11.87;58.13
62978;BME280;49073;42.352;23.808;2023-04-26T09:52:26;93778.72;;;11.99;58.64
62978;BME280;49073;42.352;23.808;2023-04-26T09:55:29;93778.38;;;12.04;57.45
62978;BME280;49073;42.352;23.808;2023-04-26T09:58:29;93780.66;;;12.13;59.08
62978;BME280;49073;42.352;23.808;2023-04-26T10:01:31;93788.66;;;12.16;57.98
62978;BME280;49073;42.352;23.808;2023-04-26T10:04:34;93791.69;;;11.97;56.07
62978;BME280;49073;42.352;23.808;2023-04-26T10:07:35;93776.44;;;11.93;56.63
62978;BME280;49073;42.352;23.808;2023-04-26T10:10:36;93775.69;;;11.89;56.13
62978;BME280;49073;42.352;23.808;2023-04-26T10:13:38;93782.94;;;11.96;57.52
62978;BME280;49073;42.352;23.808;2023-04-26T10:16:39;93782.16;;;12.14;58.47
62978;BME280;49073;42.352;23.808;2023-04-26T10:19:41;93780.59;;;12.27;56.53
62978;BME280;49073;42.352;23.808;2023-04-26T10:22:51;93776.81;;;12.17;55.47
62978;BME280;49073;42.352;23.808;2023-04-26T10:25:53;93768.03;;;11.99;56.65
62978;BME280;49073;42.352;23.808;2023-04-26T10:28:55;93757.00;;;12.04;56.72
62978;BME280;49073;42.352;23.808;2023-04-26T10:35:12;93756.22;;;12.14;57.52
62978;BME280;49073;42.352;23.808;2023-04-26T10:38:12;93751.59;;;12.33;56.87
62978;BME280;49073;42.352;23.808;2023-04-26T10:41:32;93753.84;;;12.45;55.16
62978;BME280;49073;42.352;23.808;2023-04-26T10:44:40;93743.59;;;12.22;54.80
62978;BME280;49073;42.352;23.808;2023-04-26T10:47:41;93746.66;;;12.28;54.53
62978;BME280;49073;42.352;23.808;2023-04-26T10:54:00;93749.28;;;12.31;53.89
62978;BME280;49073;42.352;23.808;2023-04-26T10:57:01;93746.31;;;12.15;53.62
62978;BME280;49073;42.352;23.808;2023-04-26T11:03:13;93751.59;;;12.29;54.01
62978;BME280;49073;42.352;23.808;2023-04-26T11:06:14;93752.69;;;12.50;56.46
62978;BME280;49073;42.352;23.808;2023-04-26T11:09:40;93760.72;;;12.43;53.54
62978;BME280;49073;42.352;23.808;2023-04-26T11:12:59;93748.84;;;12.55;56.62
62978;BME280;49073;42.352;23.808;2023-04-26T11:16:02;93752.31;;;12.48;55.41
62978;BME280;49073;42.352;23.808;2023-04-26T11:19:04;93760.34;;;12.33;55.12
62978;BME280;49073;42.352;23.808;2023-04-26T11:22:06;93754.25;;;12.40;57.91
62978;BME280;49073;42.352;23.808;2023-04-26T11:25:07;93758.06;;;12.39;60.27
62978;BME280;49073;42.352;23.808;2023-04-26T11:28:08;93760.72;;;12.39;56.17
62978;BME280;49073;42.352;23.808;2023-04-26T11:31:09;93757.69;;;12.37;58.92
62978;BME280;49073;42.352;23.808;2023-04-26T11:34:10;93756.91;;;12.44;58.21
62978;BME280;49073;42.352;23.808;2023-04-26T11:37:12;93755.34;;;12.46;56.72
62978;BME280;49073;42.352;23.808;2023-04-26T11:40:14;93757.28;;;12.46;57.33
62978;BME280;49073;42.352;23.808;2023-04-26T11:43:16;93753.50;;;12.40;56.97
62978;BME280;49073;42.352;23.808;2023-04-26T11:46:19;93759.97;;;12.46;59.08
62978;BME280;49073;42.352;23.808;2023-04-26T11:49:21;93748.16;;;12.40;56.68
62978;BME280;49073;42.352;23.808;2023-04-26T11:52:22;93753.84;;;12.49;58.72
62978;BME280;49073;42.352;23.808;2023-04-26T11:55:27;93761.44;;;12.50;58.82
62978;BME280;49073;42.352;23.808;2023-04-26T11:58:28;93766.84;;;12.40;58.51
62978;BME280;49073;42.352;23.808;2023-04-26T12:01:29;93771.41;;;12.43;62.63
62978;BME280;49073;42.352;23.808;2023-04-26T12:04:30;93782.50;;;12.34;65.62
62978;BME280;49073;42.352;23.808;2023-04-26T12:07:34;93776.84;;;11.99;63.08
62978;BME280;49073;42.352;23.808;2023-04-26T12:10:38;93770.34;;;11.89;68.76
62978;BME280;49073;42.352;23.808;2023-04-26T12:13:39;93776.09;;;11.81;72.25
62978;BME280;49073;42.352;23.808;2023-04-26T12:16:41;93776.84;;;11.88;71.59
62978;BME280;49073;42.352;23.808;2023-04-26T12:19:41;93766.56;;;12.01;72.55
62978;BME280;49073;42.352;23.808;2023-04-26T12:22:56;93772.25;;;12.00;73.02
62978;BME280;49073;42.352;23.808;2023-04-26T12:25:57;93755.09;;;11.93;72.98
62978;BME280;49073;42.352;23.808;2023-04-26T12:29:01;93757.75;;;12.12;69.18
62978;BME280;49073;42.352;23.808;2023-04-26T12:32:01;93749.38;;;12.02;64.24
62978;BME280;49073;42.352;23.808;2023-04-26T12:35:03;93762.34;;;12.04;63.77
62978;BME280;49073;42.352;23.808;2023-04-26T12:38:03;93751.66;;;12.18;61.02
62978;BME280;49073;42.352;23.808;2023-04-26T12:41:04;93756.16;;;12.32;61.80
62978;BME280;49073;42.352;23.808;2023-04-26T12:44:06;93760.81;;;12.17;58.72
62978;BME280;49073;42.352;23.808;2023-04-26T12:47:07;93765.38;;;12.17;58.06
62978;BME280;49073;42.352;23.808;2023-04-26T12:50:07;93766.53;;;12.05;58.54
62978;BME280;49073;42.352;23.808;2023-04-26T12:53:08;93768.47;;;12.08;58.04
62978;BME280;49073;42.352;23.808;2023-04-26T12:56:10;93761.94;;;12.13;57.48
62978;BME280;49073;42.352;23.808;2023-04-26T12:59:10;93764.63;;;11.94;60.29
62978;BME280;49073;42.352;23.808;2023-04-26T13:02:11;93770.75;;;12.02;66.43
62978;BME280;49073;42.352;23.808;2023-04-26T13:05:12;93774.94;;;11.96;65.00
62978;BME280;49073;42.352;23.808;2023-04-26T13:08:12;93763.91;;;11.79;66.05
62978;BME280;49073;42.352;23.808;2023-04-26T13:11:13;93778.75;;;11.77;66.35
62978;BME280;49073;42.352;23.808;2023-04-26T13:14:13;93782.19;;;11.77;68.02
62978;BME280;49073;42.352;23.808;2023-04-26T13:17:14;93782.19;;;11.74;70.06
62978;BME280;49073;42.352;23.808;2023-04-26T13:20:14;93791.34;;;11.80;68.70
62978;BME280;49073;42.352;23.808;2023-04-26T13:23:15;93795.53;;;11.99;66.35
62978;BME280;49073;42.352;23.808;2023-04-26T13:26:16;93790.56;;;11.94;66.31
62978;BME280;49073;42.352;23.808;2023-04-26T13:29:19;93789.81;;;12.01;66.61
62978;BME280;49073;42.352;23.808;2023-04-26T13:32:20;93790.94;;;12.07;66.83
62978;BME280;49073;42.352;23.808;2023-04-26T13:35:21;93792.50;;;12.04;67.09
62978;BME280;49073;42.352;23.808;2023-04-26T13:38:22;93790.56;;;12.08;68.81
62978;BME280;49073;42.352;23.808;2023-04-26T13:41:22;93787.91;;;11.94;65.76
62978;BME280;49073;42.352;23.808;2023-04-26T13:44:25;93790.59;;;11.87;65.40
62978;BME280;49073;42.352;23.808;2023-04-26T13:47:26;93795.53;;;11.88;64.83
62978;BME280;49073;42.352;23.808;2023-04-26T13:50:27;93792.50;;;11.64;63.64
62978;BME280;49073;42.352;23.808;2023-04-26T13:53:27;93805.81;;;11.39;63.98
62978;BME280;49073;42.352;23.808;2023-04-26T13:56:28;93798.19;;;11.30;65.98
62978;BME280;49073;42.352;23.808;2023-04-26T13:59:28;93805.78;;;11.21;64.26
62978;BME280;49073;42.352;23.808;2023-04-26T14:02:29;93806.94;;;11.20;65.52
62978;BME280;49073;42.352;23.808;2023-04-26T14:05:30;93813.00;;;11.10;63.78
62978;BME280;49073;42.352;23.808;2023-04-26T14:08:31;93819.09;;;11.06;65.54
62978;BME280;49073;42.352;23.808;2023-04-26T14:11:31;93817.16;;;10.93;67.97
62978;BME280;49073;42.352;23.808;2023-04-26T14:14:32;93811.41;;;10.83;69.20
62978;BME280;49073;42.352;23.808;2023-04-26T14:17:32;93816.75;;;10.83;69.12
62978;BME280;49073;42.352;23.808;2023-04-26T14:20:33;93824.34;;;10.81;69.55
62978;BME280;49073;42.352;23.808;2023-04-26T14:23:34;93830.88;;;10.91;68.87
62978;BME280;49073;42.352;23.808;2023-04-26T14:26:34;93835.78;;;10.85;68.07
62978;BME280;49073;42.352;23.808;2023-04-26T14:29:35;93829.31;;;10.86;67.27
62978;BME280;49073;42.352;23.808;2023-04-26T14:32:36;93834.31;;;10.95;67.79
62978;BME280;49073;42.352;23.808;2023-04-26T14:35:37;93829.00;;;11.02;66.91
62978;BME280;49073;42.352;23.808;2023-04-26T14:38:40;93845.72;;;10.96;66.52
62978;BME280;49073;42.352;23.808;2023-04-26T14:41:42;93843.78;;;10.85;66.78
62978;BME280;49073;42.352;23.808;2023-04-26T14:44:42;93846.81;;;10.80;67.59
62978;BME280;49073;42.352;23.808;2023-04-26T14:47:44;93860.06;;;10.69;68.64
62978;BME280;49073;42.352;23.808;2023-04-26T14:50:45;93858.47;;;10.54;72.26
62978;BME280;49073;42.352;23.808;2023-04-26T14:53:45;93861.06;;;10.43;75.75
62978;BME280;49073;42.352;23.808;2023-04-26T14:56:46;93873.19;;;10.33;78.71
62978;BME280;49073;42.352;23.808;2023-04-26T14:59:47;93879.22;;;10.30;80.60
62978;BME280;49073;42.352;23.808;2023-04-26T15:02:48;93880.75;;;10.27;82.31
62978;BME280;49073;42.352;23.808;2023-04-26T15:05:48;93882.19;;;10.14;83.22
62978;BME280;49073;42.352;23.808;2023-04-26T15:08:49;93887.56;;;10.21;83.39
62978;BME280;49073;42.352;23.808;2023-04-26T15:11:51;93896.72;;;10.27;85.01
62978;BME280;49073;42.352;23.808;2023-04-26T15:14:51;93898.59;;;10.23;85.82
62978;BME280;49073;42.352;23.808;2023-04-26T15:17:52;93905.09;;;10.29;86.37
62978;BME280;49073;42.352;23.808;2023-04-26T15:20:52;93907.69;;;10.18;87.32
62978;BME280;49073;42.352;23.808;2023-04-26T15:23:54;93909.28;;;10.30;88.00
62978;BME280;49073;42.352;23.808;2023-04-26T15:26:58;93908.19;;;10.35;87.24
62978;BME280;49073;42.352;23.808;2023-04-26T15:29:58;93911.59;;;10.36;87.92
62978;BME280;49073;42.352;23.808;2023-04-26T15:32:59;93915.34;;;10.27;86.29
62978;BME280;49073;42.352;23.808;2023-04-26T15:36:00;93916.84;;;10.25;86.13
62978;BME280;49073;42.352;23.808;2023-04-26T15:39:01;93915.66;;;10.15;86.25
62978;BME280;49073;42.352;23.808;2023-04-26T15:42:03;93920.16;;;10.07;85.83
62978;BME280;49073;42.352;23.808;2023-04-26T15:45:04;93925.91;;;10.13;86.00
62978;BME280;49073;42.352;23.808;2023-04-26T15:48:05;93923.88;;;9.99;86.69
62978;BME280;49073;42.352;23.808;2023-04-26T15:51:06;93927.22;;;9.88;87.53
62978;BME280;49073;42.352;23.808;2023-04-26T15:54:06;93929.03;;;9.81;87.18
62978;BME280;49073;42.352;23.808;2023-04-26T15:57:07;93939.56;;;9.66;87.97
62978;BME280;49073;42.352;23.808;2023-04-26T16:00:08;93939.56;;;9.70;88.42
62978;BME280;49073;42.352;23.808;2023-04-26T16:03:08;93941.09;;;9.67;89.04
62978;BME280;49073;42.352;23.808;2023-04-26T16:06:09;93934.34;;;9.77;89.80